Time;durP1;ratioP1;P1;durP2;ratioP2;P2;SDS_P1;SDS_P2;PMS_P1;PMS_P2;Temp;Humidity;BMP_temperature;BMP_pressure;BME280_temperature;BME280_humidity;BME280_pressure;Samples;Min_cycle;Max_cycle;Signal;HPM_P1;HPM_P2
2022/12/02 00:01:11;;;;;;;29.87;22.57;;;5.90;21.70;;;;;;5099170;28;20426;-43
2022/12/02 00:03:37;;;;;;;31.40;23.10;;;5.80;1.00;;;;;;5099734;28;20469;-42
2022/12/02 00:06:03;;;;;;;28.80;22.23;;;5.80;1.00;;;;;;5098821;28;20426;-42
2022/12/02 00:08:30;;;;;;;31.27;23.37;;;5.80;1.00;;;;;;5100139;28;20177;-42
2022/12/02 00:10:59;;;;;;;33.13;23.53;;;5.70;1.00;;;;;;5082668;28;20840;-42
2022/12/02 00:13:55;;;;;;;31.93;23.80;;;5.70;1.00;;;;;;5099508;28;20426;-41
2022/12/02 00:16:22;;;;;;;32.30;22.03;;;5.70;1.00;;;;;;5097676;28;20461;-42
2022/12/02 00:18:49;;;;;;;33.40;24.37;;;5.70;1.00;;;;;;5098700;28;21145;-41
2022/12/02 00:21:16;;;;;;;31.70;23.20;;;5.70;1.00;;;;;;5099319;28;20486;-41
2022/12/02 00:23:41;;;;;;;32.43;22.57;;;5.70;1.00;;;;;;5098497;28;20567;-42
2022/12/02 00:26:07;;;;;;;33.67;25.17;;;5.60;1.00;;;;;;5099823;28;20446;-43
2022/12/02 00:28:33;;;;;;;32.00;23.93;;;5.60;1.00;;;;;;5098735;28;20191;-41
2022/12/02 00:30:58;;;;;;;39.87;25.20;;;5.60;1.00;;;;;;5098197;28;20177;-42
2022/12/02 00:33:24;;;;;;;35.30;25.23;;;5.60;1.00;;;;;;5097211;28;20180;-41
2022/12/02 00:35:50;;;;;;;30.77;22.40;;;5.60;1.00;;;;;;5096819;28;20241;-45
2022/12/02 00:38:15;;;;;;;30.03;21.23;;;5.60;1.00;;;;;;5096269;28;20196;-44
2022/12/02 00:40:41;;;;;;;32.13;22.27;;;5.60;1.00;;;;;;5096681;28;20216;-42
2022/12/02 00:48:35;;;;;;;32.97;23.60;;;5.60;1.00;;;;;;5096198;28;20413;-42
2022/12/02 00:51:01;;;;;;;32.07;23.23;;;5.60;1.00;;;;;;5097626;28;20433;-41
2022/12/02 00:53:27;;;;;;;35.00;23.87;;;5.60;1.00;;;;;;5097572;28;20445;-40
2022/12/02 00:55:52;;;;;;;33.23;23.80;;;5.50;1.00;;;;;;5097181;28;20434;-40
2022/12/02 00:58:18;;;;;;;30.40;23.53;;;5.50;1.00;;;;;;5097312;28;20530;-40
2022/12/02 01:00:44;;;;;;;30.23;22.73;;;5.50;1.00;;;;;;5096666;28;20183;-42
2022/12/02 01:03:10;;;;;;;35.53;24.97;;;5.50;1.00;;;;;;5098334;28;20215;-40
2022/12/02 01:05:37;;;;;;;32.40;23.70;;;5.50;1.00;;;;;;5098754;28;20451;-40
2022/12/02 01:08:03;;;;;;;32.37;24.13;;;5.50;1.00;;;;;;5098594;28;20414;-43
2022/12/02 01:10:29;;;;;;;33.27;23.87;;;5.50;99.90;;;;;;5097746;28;20176;-40
2022/12/02 01:12:54;;;;;;;34.37;23.87;;;5.50;99.90;;;;;;5098958;28;20415;-40
2022/12/02 01:15:20;;;;;;;33.37;24.60;;;5.50;99.90;;;;;;5098607;28;20180;-40
2022/12/02 01:17:46;;;;;;;35.30;24.23;;;5.50;99.90;;;;;;5098534;28;20249;-40
2022/12/02 01:20:12;;;;;;;37.33;25.67;;;5.40;99.90;;;;;;5097735;28;20697;-40
2022/12/02 01:22:38;;;;;;;31.27;23.77;;;5.40;99.90;;;;;;5098554;28;20204;-41
2022/12/02 01:25:04;;;;;;;33.23;23.90;;;5.40;99.90;;;;;;5097862;28;20442;-42
2022/12/02 01:27:29;;;;;;;35.97;25.40;;;5.40;1.00;;;;;;5098752;28;20176;-41
2022/12/02 01:29:55;;;;;;;32.77;24.63;;;5.30;1.00;;;;;;5098778;28;20493;-41
2022/12/02 01:32:22;;;;;;;34.97;23.50;;;5.30;1.00;;;;;;5098152;28;20176;-41
2022/12/02 01:34:48;;;;;;;33.00;23.37;;;5.40;1.00;;;;;;5097959;28;20267;-44
2022/12/02 01:37:14;;;;;;;31.60;23.87;;;5.40;1.00;;;;;;5097982;28;20674;-42
2022/12/02 01:39:40;;;;;;;34.93;26.13;;;5.40;1.00;;;;;;5098508;28;20411;-41
2022/12/02 01:42:05;;;;;;;37.37;26.87;;;5.40;1.00;;;;;;5098374;28;20461;-42
2022/12/02 01:44:31;;;;;;;38.10;25.87;;;5.40;1.00;;;;;;5096367;28;20271;-41
2022/12/02 01:46:57;;;;;;;36.73;25.00;;;5.40;1.00;;;;;;5097880;28;20184;-41
2022/12/02 01:49:23;;;;;;;34.87;24.00;;;5.40;1.00;;;;;;5097052;28;20843;-42
2022/12/02 01:51:49;;;;;;;30.27;23.47;;;5.40;1.00;;;;;;5098113;28;20581;-41
2022/12/02 01:54:15;;;;;;;36.77;25.77;;;5.40;1.00;;;;;;5097297;28;20844;-41
2022/12/02 01:56:40;;;;;;;32.50;23.60;;;5.40;1.00;;;;;;5097751;28;20478;-42
2022/12/02 01:59:08;;;;;;;32.90;22.83;;;5.40;1.00;;;;;;5098306;28;20184;-40
2022/12/02 02:01:34;;;;;;;33.10;22.17;;;5.40;1.00;;;;;;5097203;28;20430;-42
2022/12/02 02:04:01;;;;;;;33.67;24.07;;;5.50;1.00;;;;;;5098464;28;20411;-41
2022/12/02 02:06:30;;;;;;;33.37;23.70;;;5.40;99.90;;;;;;5097122;28;20422;-42
2022/12/02 02:08:56;;;;;;;30.23;23.20;;;5.40;99.90;;;;;;5096827;28;20433;-42
2022/12/02 02:11:22;;;;;;;36.17;23.97;;;5.40;99.90;;;;;;5096873;28;20840;-41
2022/12/02 02:13:48;;;;;;;30.47;22.57;;;5.40;1.00;;;;;;5097205;28;20763;-42
2022/12/02 02:16:14;;;;;;;29.83;22.73;;;5.40;1.00;;;;;;5097665;28;20470;-42
2022/12/02 02:18:40;;;;;;;33.63;22.90;;;5.40;99.90;;;;;;5096999;28;20223;-43
2022/12/02 02:21:09;;;;;;;33.37;24.37;;;5.40;99.90;;;;;;5100442;28;20257;-41
2022/12/02 02:23:35;;;;;;;32.10;24.10;;;5.40;99.90;;;;;;5102299;28;20728;-47
2022/12/02 02:26:20;;;;;;;34.80;25.00;;;5.40;99.90;;;;;;5102199;28;20700;-44
2022/12/02 02:28:45;;;;;;;32.17;23.23;;;5.40;99.90;;;;;;5101215;28;20432;-42
2022/12/02 02:31:11;;;;;;;31.00;22.50;;;5.40;1.00;;;;;;5102320;28;20406;-40
2022/12/02 02:33:37;;;;;;;37.73;25.47;;;5.40;1.00;;;;;;5101700;28;20267;-42
2022/12/02 02:36:04;;;;;;;31.97;23.27;;;5.40;1.00;;;;;;5101826;28;20271;-41
2022/12/02 02:38:30;;;;;;;35.57;24.60;;;5.40;1.00;;;;;;5100507;28;20883;-41
2022/12/02 02:40:57;;;;;;;36.40;23.10;;;5.40;1.00;;;;;;5100772;28;20410;-41
2022/12/02 02:43:24;;;;;;;35.87;24.87;;;5.40;1.00;;;;;;5101338;28;20488;-43
2022/12/02 02:45:51;;;;;;;36.00;24.63;;;5.40;1.00;;;;;;5101931;28;20804;-42
2022/12/02 02:48:18;;;;;;;36.93;24.93;;;5.40;1.00;;;;;;5100602;28;20426;-41
2022/12/02 02:50:45;;;;;;;37.60;26.10;;;5.30;1.00;;;;;;5101173;28;21087;-44
2022/12/02 02:53:12;;;;;;;38.07;25.83;;;5.30;1.00;;;;;;5100564;28;20430;-41
2022/12/02 02:55:38;;;;;;;32.53;23.97;;;5.40;1.00;;;;;;5100753;28;20426;-42
2022/12/02 02:58:27;;;;;;;35.40;25.20;;;5.30;1.00;;;;;;5083261;28;20474;-42
2022/12/02 03:00:58;;;;;;;35.07;24.83;;;5.40;1.00;;;;;;5101646;28;20176;-43
2022/12/02 03:03:28;;;;;;;36.50;25.57;;;5.40;1.00;;;;;;5100256;28;20473;-40
2022/12/02 03:05:55;;;;;;;35.73;25.07;;;5.40;1.00;;;;;;5101236;28;20449;-41
2022/12/02 03:08:22;;;;;;;36.27;25.30;;;5.40;1.00;;;;;;5100010;28;20893;-41
2022/12/02 03:10:48;;;;;;;35.10;25.37;;;5.40;1.00;;;;;;5099492;28;20712;-42
2022/12/02 03:13:13;;;;;;;37.93;24.53;;;5.40;1.00;;;;;;5099585;28;20515;-42
2022/12/02 03:15:39;;;;;;;37.53;25.70;;;5.40;1.00;;;;;;5099793;28;20834;-40
2022/12/02 03:18:05;;;;;;;37.03;25.30;;;5.40;1.00;;;;;;5100175;28;20437;-40
2022/12/02 03:20:31;;;;;;;33.67;24.07;;;5.40;99.90;;;;;;5099844;28;20445;-42
2022/12/02 03:22:57;;;;;;;33.47;25.63;;;5.40;99.90;;;;;;5099137;28;20224;-41
2022/12/02 03:25:22;;;;;;;35.80;25.13;;;5.40;99.90;;;;;;5099105;28;20410;-40
2022/12/02 03:27:48;;;;;;;35.30;25.23;;;5.40;99.90;;;;;;5100405;28;20191;-41
2022/12/02 03:30:14;;;;;;;39.90;25.60;;;5.40;99.90;;;;;;5099921;28;20164;-40
2022/12/02 03:32:39;;;;;;;32.00;23.10;;;5.40;99.90;;;;;;5098234;28;20215;-41
2022/12/02 03:35:06;;;;;;;34.80;24.50;;;5.40;99.90;;;;;;5100300;28;20272;-41
2022/12/02 03:37:31;;;;;;;40.10;26.33;;;5.40;1.00;;;;;;5100436;28;20180;-42
2022/12/02 03:39:57;;;;;;;37.77;25.67;;;5.40;1.00;;;;;;5100630;28;20417;-40
2022/12/02 03:42:25;;;;;;;36.10;25.53;;;5.40;1.00;;;;;;5100121;28;20204;-39
2022/12/02 03:44:50;;;;;;;40.80;28.30;;;5.40;1.00;;;;;;5099094;28;20850;-43
2022/12/02 03:47:17;;;;;;;35.47;23.90;;;5.40;1.00;;;;;;5098978;28;20442;-41
2022/12/02 03:49:43;;;;;;;38.30;25.33;;;5.40;1.00;;;;;;5100558;28;20217;-42
2022/12/02 03:52:09;;;;;;;36.00;24.33;;;5.40;1.00;;;;;;5099415;28;20465;-41
2022/12/02 03:54:36;;;;;;;34.70;24.90;;;5.40;1.00;;;;;;5099235;28;20485;-40
2022/12/02 03:57:04;;;;;;;38.07;26.13;;;5.40;1.00;;;;;;5099164;28;20485;-43
2022/12/02 03:59:30;;;;;;;32.97;23.63;;;5.30;1.00;;;;;;5098330;28;20418;-43
2022/12/02 04:01:55;;;;;;;38.80;25.43;;;5.30;1.00;;;;;;5098817;28;20442;-41
2022/12/02 04:04:21;;;;;;;30.93;23.07;;;5.30;1.00;;;;;;5098527;28;20178;-39
2022/12/02 04:06:47;;;;;;;35.90;25.50;;;5.30;1.00;;;;;;5098579;28;20195;-42
2022/12/02 04:09:12;;;;;;;36.73;25.10;;;5.30;1.00;;;;;;5098769;28;20180;-40
2022/12/02 04:11:38;;;;;;;34.17;22.60;;;5.30;1.00;;;;;;5098666;28;20169;-40
2022/12/02 04:14:04;;;;;;;34.00;24.30;;;5.30;1.00;;;;;;5099125;28;20184;-45
2022/12/02 04:16:29;;;;;;;34.20;24.30;;;5.30;1.00;;;;;;5098085;28;20169;-40
2022/12/02 04:18:55;;;;;;;35.97;25.07;;;5.30;1.00;;;;;;5098249;28;20432;-42
2022/12/02 04:21:23;;;;;;;36.53;24.43;;;5.30;1.00;;;;;;5098365;28;20184;-41
2022/12/02 04:23:50;;;;;;;32.53;22.67;;;5.30;1.00;;;;;;5099942;28;20239;-40
2022/12/02 04:26:16;;;;;;;33.27;23.87;;;5.30;1.00;;;;;;5099781;28;20414;-43
2022/12/02 04:28:42;;;;;;;37.43;25.30;;;5.30;1.00;;;;;;5099965;28;20419;-40
2022/12/02 04:31:07;;;;;;;34.70;24.20;;;5.30;1.00;;;;;;5099190;28;20172;-41
2022/12/02 04:33:33;;;;;;;32.17;24.17;;;5.30;1.00;;;;;;5082075;28;20234;-43
2022/12/02 04:35:59;;;;;;;34.50;25.40;;;5.30;1.00;;;;;;5099721;28;20187;-41
2022/12/02 04:38:25;;;;;;;33.07;23.60;;;5.30;1.00;;;;;;5098889;28;20426;-41
2022/12/02 04:40:50;;;;;;;34.70;25.43;;;5.30;1.00;;;;;;5097842;28;20538;-42
2022/12/02 04:43:16;;;;;;;35.60;26.23;;;5.30;1.00;;;;;;5098773;28;20258;-42
2022/12/02 04:45:42;;;;;;;34.90;24.40;;;5.30;1.00;;;;;;5098642;28;20255;-41
2022/12/02 04:48:07;;;;;;;36.00;26.60;;;5.30;1.00;;;;;;5097373;28;20180;-42
2022/12/02 04:50:33;;;;;;;35.10;23.70;;;5.30;1.00;;;;;;5098935;28;20173;-43
2022/12/02 04:52:58;;;;;;;39.00;27.27;;;5.30;1.00;;;;;;5080713;28;20574;-42
2022/12/02 04:55:24;;;;;;;34.97;24.23;;;5.30;1.00;;;;;;5096971;28;20263;-41
2022/12/02 04:57:50;;;;;;;29.20;21.93;;;5.30;1.00;;;;;;5097246;28;20232;-42
2022/12/02 05:00:16;;;;;;;37.70;24.90;;;5.30;1.00;;;;;;5098083;28;20455;-40
2022/12/02 05:02:41;;;;;;;33.33;25.40;;;5.30;1.00;;;;;;5098134;28;20558;-42
2022/12/02 05:05:08;;;;;;;35.47;25.03;;;5.30;1.00;;;;;;5097818;28;20171;-42
2022/12/02 05:07:33;;;;;;;33.17;23.90;;;5.30;1.00;;;;;;5096855;28;20341;-43
2022/12/02 05:09:59;;;;;;;35.23;24.90;;;5.30;1.00;;;;;;5097102;28;20497;-42
2022/12/02 05:12:24;;;;;;;37.33;25.17;;;5.30;1.00;;;;;;5097311;28;20315;-42
2022/12/02 05:14:51;;;;;;;34.77;24.70;;;5.20;1.00;;;;;;5096850;28;20175;-41
2022/12/02 05:17:17;;;;;;;37.03;25.47;;;5.20;1.00;;;;;;5096105;28;20180;-41
2022/12/02 05:19:42;;;;;;;40.10;26.47;;;5.20;1.00;;;;;;5096426;28;20429;-42
2022/12/02 05:22:08;;;;;;;33.73;25.07;;;5.20;1.00;;;;;;5096298;28;20734;-42
2022/12/02 05:24:34;;;;;;;36.70;26.33;;;5.20;1.00;;;;;;5096599;28;20179;-42
2022/12/02 05:27:00;;;;;;;37.07;27.13;;;5.20;1.00;;;;;;5095626;28;20682;-42
2022/12/02 05:29:25;;;;;;;35.53;25.40;;;5.20;1.00;;;;;;5097897;28;20243;-42
2022/12/02 05:31:51;;;;;;;36.23;25.87;;;5.20;1.00;;;;;;5098308;28;20241;-42
2022/12/02 05:34:17;;;;;;;36.40;25.83;;;5.20;1.00;;;;;;5098859;28;20597;-42
2022/12/02 05:36:43;;;;;;;37.00;25.63;;;5.20;1.00;;;;;;5096872;28;20169;-42
2022/12/02 05:39:08;;;;;;;38.67;25.50;;;5.20;1.00;;;;;;5097484;28;20464;-40
2022/12/02 05:41:34;;;;;;;35.10;25.10;;;5.20;1.00;;;;;;5096737;28;20164;-40
2022/12/02 05:44:17;;;;;;;39.07;28.10;;;5.20;1.00;;;;;;5097344;28;20212;-41
2022/12/02 05:46:42;;;;;;;42.00;28.20;;;5.30;1.00;;;;;;5096416;28;20237;-43
2022/12/02 05:49:18;;;;;;;39.90;28.83;;;5.30;1.00;;;;;;5095249;28;20415;-43
2022/12/02 05:51:44;;;;;;;36.87;26.60;;;5.30;1.00;;;;;;5095932;28;20172;-43
2022/12/02 05:54:19;;;;;;;39.60;27.17;;;5.30;1.00;;;;;;5095398;28;20410;-44
2022/12/02 05:56:46;;;;;;;41.47;27.60;;;5.30;1.00;;;;;;5074295;28;20528;-44
2022/12/02 05:59:18;;;;;;;37.53;25.40;;;5.30;1.00;;;;;;5090082;28;20414;-45
2022/12/02 06:01:48;;;;;;;36.13;26.13;;;5.30;1.00;;;;;;5091432;28;20463;-41
2022/12/02 06:04:20;;;;;;;38.67;27.27;;;5.30;1.00;;;;;;5090764;28;20480;-46
2022/12/02 06:06:46;;;;;;;36.57;26.10;;;5.30;1.00;;;;;;5086063;28;20419;-43
2022/12/02 06:09:17;;;;;;;37.33;23.63;;;5.30;1.00;;;;;;5086318;28;20549;-42
2022/12/02 06:11:43;;;;;;;37.63;26.73;;;5.30;1.00;;;;;;5087243;28;20502;-43
2022/12/02 06:14:21;;;;;;;38.43;25.27;;;5.40;1.00;;;;;;5087366;28;21025;-42
2022/12/02 06:16:52;;;;;;;35.70;26.17;;;5.30;1.00;;;;;;5086448;28;20450;-43
2022/12/02 06:19:24;;;;;;;34.50;25.00;;;5.30;1.00;;;;;;5086185;28;20476;-42
2022/12/02 06:21:51;;;;;;;40.70;26.70;;;5.30;1.00;;;;;;5088058;28;20777;-41
2022/12/02 06:24:27;;;;;;;35.27;25.30;;;5.30;1.00;;;;;;5090053;28;20403;-42
2022/12/02 06:26:54;;;;;;;36.10;25.77;;;5.30;1.00;;;;;;5090754;28;20850;-41
2022/12/02 06:29:20;;;;;;;38.10;25.27;;;5.30;1.00;;;;;;5088493;28;20859;-41
2022/12/02 06:31:46;;;;;;;42.00;27.40;;;5.30;1.00;;;;;;5087749;28;20710;-42
2022/12/02 06:34:35;;;;;;;45.60;28.30;;;5.30;1.00;;;;;;5084716;28;20411;-41
2022/12/02 06:37:20;;;;;;;38.60;27.37;;;5.30;1.00;;;;;;5088705;28;20206;-43
2022/12/02 06:39:48;;;;;;;40.07;25.73;;;5.30;1.00;;;;;;5092516;28;20406;-42
2022/12/02 06:42:26;;;;;;;39.73;27.57;;;5.30;1.00;;;;;;5087777;28;20820;-42
2022/12/02 06:45:03;;;;;;;38.43;25.57;;;5.30;1.00;;;;;;5086584;28;20425;-42
2022/12/02 06:47:32;;;;;;;41.70;26.47;;;5.30;1.00;;;;;;5086919;28;20755;-42
2022/12/02 06:50:17;;;;;;;41.40;26.10;;;5.30;1.00;;;;;;5088358;28;20419;-43
2022/12/02 06:52:44;;;;;;;32.60;23.10;;;5.30;1.00;;;;;;5083802;28;20524;-41
2022/12/02 06:55:34;;;;;;;39.90;25.57;;;5.30;1.00;;;;;;5086669;28;20510;-43
2022/12/02 06:58:16;;;;;;;38.17;25.67;;;5.30;1.00;;;;;;5082827;28;20730;-43
2022/12/02 07:00:42;;;;;;;37.33;24.07;;;5.30;1.00;;;;;;5087246;28;20442;-41
2022/12/02 07:03:29;;;;;;;33.10;23.57;;;5.30;1.00;;;;;;5086127;28;20736;-42
2022/12/02 07:06:09;;;;;;;34.00;23.90;;;5.30;1.00;;;;;;5089699;28;20441;-42
2022/12/02 07:08:35;;;;;;;35.57;24.47;;;5.30;1.00;;;;;;5096309;28;20481;-43
2022/12/02 07:11:01;;;;;;;36.17;23.10;;;5.30;1.00;;;;;;5096185;28;20437;-43
2022/12/02 07:13:27;;;;;;;34.17;23.50;;;5.30;1.00;;;;;;5094490;28;20180;-42
2022/12/02 07:15:53;;;;;;;35.87;24.43;;;5.30;1.00;;;;;;5095754;28;20172;-42
2022/12/02 07:18:20;;;;;;;31.57;22.10;;;5.40;1.00;;;;;;5096080;28;20441;-41
2022/12/02 07:20:46;;;;;;;31.77;22.00;;;5.40;1.00;;;;;;5098089;28;20191;-43
2022/12/02 07:23:20;;;;;;;31.17;21.30;;;5.40;1.00;;;;;;5097371;28;20474;-41
2022/12/02 07:25:53;;;;;;;29.90;22.10;;;5.40;1.00;;;;;;5093871;28;20870;-45
2022/12/02 07:28:32;;;;;;;27.83;19.67;;;5.40;1.00;;;;;;5095511;28;20562;-42
2022/12/02 07:31:28;;;;;;;30.57;20.43;;;5.40;99.90;;;;;;5094610;28;20443;-45
2022/12/02 07:33:54;;;;;;;26.10;19.47;;;5.50;1.00;;;;;;5094154;28;20426;-41
2022/12/02 07:36:20;;;;;;;27.73;20.80;;;5.50;99.90;;;;;;5096360;28;20433;-42
2022/12/02 07:38:46;;;;;;;33.90;20.47;;;5.50;99.90;;;;;;5097076;28;20339;-44
2022/12/02 07:41:14;;;;;;;32.27;21.20;;;5.50;99.90;;;;;;5096090;28;20411;-41
2022/12/02 07:43:40;;;;;;;30.47;21.53;;;5.50;99.90;;;;;;5093975;28;20466;-42
2022/12/02 07:46:05;;;;;;;31.90;20.77;;;5.50;99.90;;;;;;5096430;28;20421;-43
2022/12/02 07:48:31;;;;;;;30.60;21.40;;;5.50;99.90;;;;;;5096773;28;20176;-43
2022/12/02 07:50:57;;;;;;;29.80;21.17;;;5.50;99.90;;;;;;5097617;28;20523;-42
2022/12/02 07:53:22;;;;;;;35.03;21.80;;;5.50;99.90;;;;;;5097195;28;20689;-43
2022/12/02 07:55:48;;;;;;;32.80;20.77;;;5.50;99.90;;;;;;5095667;28;20180;-43
2022/12/02 07:58:14;;;;;;;34.13;22.20;;;5.50;99.90;;;;;;5095225;28;20236;-42
2022/12/02 08:00:40;;;;;;;34.73;21.20;;;5.50;99.90;;;;;;5093870;28;20173;-43
2022/12/02 08:03:05;;;;;;;30.00;22.27;;;5.50;99.90;;;;;;5076736;28;20234;-41
2022/12/02 08:05:31;;;;;;;32.53;21.67;;;5.50;99.90;;;;;;5095859;28;20183;-41
2022/12/02 08:07:56;;;;;;;33.97;22.37;;;5.50;99.90;;;;;;5095583;28;20208;-43
2022/12/02 08:10:22;;;;;;;32.03;21.00;;;5.50;99.90;;;;;;5094623;28;20181;-44
2022/12/02 08:12:48;;;;;;;28.50;19.20;;;5.50;99.90;;;;;;5092639;28;20180;-41
2022/12/02 08:15:14;;;;;;;38.57;24.40;;;5.50;99.90;;;;;;5094978;28;20176;-42
2022/12/02 08:17:41;;;;;;;32.83;21.73;;;5.50;99.90;;;;;;5093161;28;20188;-42
2022/12/02 08:20:09;;;;;;;32.87;22.20;;;5.50;99.90;;;;;;5092883;28;20421;-41
2022/12/02 08:22:34;;;;;;;36.57;24.00;;;5.50;99.90;;;;;;5094765;28;20465;-42
2022/12/02 08:25:01;;;;;;;36.10;23.57;;;5.50;99.90;;;;;;5095215;28;20908;-44
2022/12/02 08:27:27;;;;;;;36.63;23.80;;;5.50;99.90;;;;;;5094066;28;20188;-42
2022/12/02 08:29:52;;;;;;;33.67;22.30;;;5.60;99.90;;;;;;5093080;28;20685;-41
2022/12/02 08:32:19;;;;;;;31.07;21.90;;;5.60;99.90;;;;;;5095198;28;20555;-41
2022/12/02 08:34:45;;;;;;;40.57;24.43;;;5.60;99.90;;;;;;5096036;28;20176;-44
2022/12/02 08:37:11;;;;;;;35.83;22.37;;;5.60;99.90;;;;;;5093689;28;20432;-42
2022/12/02 08:39:37;;;;;;;33.73;23.07;;;5.60;99.90;;;;;;5093507;28;20414;-41
2022/12/02 08:42:03;;;;;;;35.90;22.33;;;5.60;99.90;;;;;;5093989;28;20717;-41
2022/12/02 08:44:29;;;;;;;37.50;23.63;;;5.60;99.90;;;;;;5093771;28;20425;-42
2022/12/02 08:46:54;;;;;;;39.23;24.10;;;5.60;99.90;;;;;;5093949;28;20693;-43
2022/12/02 08:49:20;;;;;;;35.40;23.90;;;5.70;99.90;;;;;;5094314;28;20318;-42
2022/12/02 08:51:46;;;;;;;40.33;26.70;;;5.70;99.90;;;;;;5092740;28;20188;-41
2022/12/02 08:54:14;;;;;;;41.30;25.60;;;5.70;99.90;;;;;;5094892;28;20168;-40
2022/12/02 08:56:40;;;;;;;41.43;24.80;;;5.70;99.90;;;;;;5095949;28;20503;-44
2022/12/02 08:59:05;;;;;;;42.17;25.37;;;5.70;99.90;;;;;;5102022;28;20430;-42
2022/12/02 09:01:31;;;;;;;39.37;24.70;;;5.70;99.90;;;;;;5094707;28;20460;-42
2022/12/02 09:03:57;;;;;;;38.40;26.27;;;5.70;99.90;;;;;;5094903;28;20211;-43
2022/12/02 09:06:23;;;;;;;37.30;26.50;;;5.70;99.90;;;;;;5095723;28;20870;-42
2022/12/02 09:08:48;;;;;;;40.20;24.97;;;5.70;99.90;;;;;;5095683;28;20188;-43
2022/12/02 09:11:14;;;;;;;39.00;24.93;;;5.70;99.90;;;;;;5097209;28;20198;-42
2022/12/02 09:13:39;;;;;;;37.77;24.63;;;5.80;99.90;;;;;;5096042;28;20728;-41
2022/12/02 09:16:05;;;;;;;41.70;25.80;;;5.80;99.90;;;;;;5095557;28;20184;-41
2022/12/02 09:18:31;;;;;;;35.00;23.70;;;5.80;99.90;;;;;;5094495;28;20184;-42
2022/12/02 09:21:00;;;;;;;33.80;23.17;;;5.90;99.90;;;;;;5096260;28;20543;-41
2022/12/02 09:23:27;;;;;;;36.23;24.40;;;6.00;99.90;;;;;;5095331;28;20272;-42
2022/12/02 09:25:53;;;;;;;34.70;22.57;;;6.00;99.90;;;;;;5094969;28;20442;-42
2022/12/02 09:28:24;;;;;;;34.63;21.80;;;6.10;99.90;;;;;;5095990;28;20460;-43
2022/12/02 09:30:52;;;;;;;34.13;21.70;;;6.10;25.70;;;;;;5093688;28;20283;-43
2022/12/02 09:33:17;;;;;;;29.20;19.20;;;6.20;1.00;;;;;;5095721;28;20528;-44
2022/12/02 09:35:43;;;;;;;35.90;22.73;;;6.20;1.00;;;;;;5094704;28;20176;-42
2022/12/02 09:38:09;;;;;;;32.63;20.70;;;6.30;1.00;;;;;;5094019;28;20184;-41
2022/12/02 09:40:35;;;;;;;31.97;20.70;;;6.30;1.00;;;;;;5095097;28;20559;-47
2022/12/02 09:43:02;;;;;;;31.57;20.00;;;6.30;1.00;;;;;;5094136;28;20207;-41
2022/12/02 09:45:28;;;;;;;27.07;19.00;;;6.40;1.00;;;;;;5077704;28;20452;-41
2022/12/02 09:47:54;;;;;;;29.30;18.80;;;6.40;99.90;;;;;;5076177;28;20697;-41
2022/12/02 09:50:20;;;;;;;28.93;20.20;;;6.40;99.90;;;;;;5094930;28;20823;-43
2022/12/02 09:52:46;;;;;;;28.90;20.17;;;6.40;99.90;;;;;;5095061;28;20177;-41
2022/12/02 09:55:15;;;;;;;26.37;16.33;;;6.50;99.90;;;;;;5093488;28;20457;-42
2022/12/02 09:57:41;;;;;;;25.87;17.63;;;6.50;99.90;;;;;;5093517;28;20466;-41
2022/12/02 10:00:13;;;;;;;27.00;17.70;;;6.50;99.90;;;;;;5092304;28;20426;-41
2022/12/02 10:03:05;;;;;;;27.87;17.93;;;6.50;99.90;;;;;;5095766;28;20554;-42
2022/12/02 10:05:32;;;;;;;28.70;17.73;;;6.50;99.90;;;;;;5095046;28;20433;-42
2022/12/02 10:07:58;;;;;;;26.33;18.10;;;6.50;65.50;;;;;;5096481;28;20453;-40
2022/12/02 10:10:36;;;;;;;26.97;18.60;;;6.50;18.70;;;;;;5094270;28;20416;-43
2022/12/02 10:13:02;;;;;;;26.37;17.80;;;6.50;9.90;;;;;;5092859;28;20430;-41
2022/12/02 10:15:30;;;;;;;25.90;17.13;;;6.50;1.00;;;;;;5093771;28;21055;-51
2022/12/02 10:17:56;;;;;;;24.43;16.77;;;6.50;1.00;;;;;;5091733;28;20261;-43
2022/12/02 10:20:25;;;;;;;22.73;16.03;;;6.60;1.00;;;;;;5093110;28;20430;-41
2022/12/02 10:23:08;;;;;;;25.63;16.97;;;6.60;1.00;;;;;;5095400;28;20496;-41
2022/12/02 10:25:34;;;;;;;20.57;14.50;;;6.60;1.00;;;;;;5094056;28;20417;-41
2022/12/02 10:28:00;;;;;;;23.10;16.30;;;6.60;1.00;;;;;;5095334;28;20877;-41
2022/12/02 10:30:26;;;;;;;27.77;17.97;;;6.60;1.00;;;;;;5092495;28;20718;-42
2022/12/02 10:33:02;;;;;;;24.93;17.10;;;6.60;1.00;;;;;;5093386;28;20445;-45
2022/12/02 10:35:43;;;;;;;22.40;16.33;;;6.60;1.00;;;;;;5092548;28;20416;-42
2022/12/02 10:38:39;;;;;;;22.77;15.47;;;6.60;1.00;;;;;;5092674;28;20469;-41
2022/12/02 10:41:18;;;;;;;22.87;14.87;;;6.60;1.00;;;;;;5094576;28;20422;-41
2022/12/02 10:44:03;;;;;;;25.07;17.03;;;6.70;1.00;;;;;;5097566;28;20525;-42
2022/12/02 10:46:29;;;;;;;18.20;13.87;;;6.70;1.00;;;;;;5097730;28;20418;-40
2022/12/02 10:48:55;;;;;;;20.50;14.87;;;6.70;1.00;;;;;;5095934;28;20449;-42
2022/12/02 10:51:21;;;;;;;19.13;14.87;;;6.70;1.00;;;;;;5077822;28;20446;-42
2022/12/02 10:53:49;;;;;;;21.17;14.77;;;6.70;1.00;;;;;;5097005;28;20199;-40
2022/12/02 10:56:24;;;;;;;24.33;16.67;;;6.60;1.00;;;;;;5075641;28;20911;-42
2022/12/02 10:58:50;;;;;;;22.20;15.37;;;6.60;1.00;;;;;;5097595;28;20514;-41
2022/12/02 11:01:19;;;;;;;23.20;15.50;;;6.60;1.00;;;;;;5114259;28;20429;-45
2022/12/02 11:03:45;;;;;;;17.87;12.53;;;6.60;1.00;;;;;;5101620;28;20496;-41
2022/12/02 11:06:17;;;;;;;23.40;15.53;;;6.60;1.00;;;;;;5097987;28;20445;-42
2022/12/02 11:08:43;;;;;;;22.03;14.80;;;6.60;1.00;;;;;;5093161;28;20437;-42
2022/12/02 11:11:24;;;;;;;20.13;14.40;;;6.60;1.00;;;;;;5092060;28;20716;-43
2022/12/02 11:13:57;;;;;;;17.43;12.00;;;6.60;1.00;;;;;;5094380;28;20429;-41
2022/12/02 11:16:28;;;;;;;12.17;6.20;;;6.50;1.00;;;;;;5094583;28;20425;-46
2022/12/02 11:18:57;;;;;;;12.57;9.43;;;8.20;1.00;;;;;;5093084;28;20434;-46
2022/12/02 11:21:30;;;;;;;12.93;8.47;;;9.70;1.00;;;;;;5086236;28;20484;-48
2022/12/02 11:24:25;;;;;;;12.33;8.50;;;10.90;1.00;;;;;;5076916;28;20557;-46
2022/12/02 11:31:09;;;;;;;13.97;10.37;;;12.40;1.00;;;;;;5081125;28;20557;-47
2022/12/02 11:33:51;;;;;;;13.40;8.47;;;13.20;1.00;;;;;;5105973;28;20786;-42
2022/12/02 11:36:21;;;;;;;12.20;9.30;;;13.70;99.90;;;;;;5115217;28;20449;-41
2022/12/02 11:45:39;;;;;;;14.40;11.03;;;11.90;1.00;;;;;;5115649;28;20397;-40
2022/12/02 11:48:15;;;;;;;13.60;10.27;;;11.00;99.90;;;;;;5114924;28;20853;-40
2022/12/02 11:50:41;;;;;;;15.30;11.40;;;10.40;99.90;;;;;;5117470;28;20453;-41
2022/12/02 11:53:23;;;;;;;14.53;10.43;;;9.90;99.90;;;;;;5116502;28;20445;-44
2022/12/02 11:55:51;;;;;;;12.97;9.83;;;9.40;1.00;;;;;;5118047;27;20736;-40
2022/12/02 11:58:25;;;;;;;13.57;11.03;;;9.10;1.00;;;;;;5117719;28;20504;-41
2022/12/02 12:01:11;;;;;;;17.20;11.00;;;8.80;1.00;;;;;;5118094;28;20433;-42
2022/12/02 12:03:40;;;;;;;13.03;9.47;;;8.50;81.10;;;;;;5116674;28;20743;-41
2022/12/02 12:06:14;;;;;;;13.37;9.87;;;8.20;99.90;;;;;;5116841;27;20460;-44
2022/12/02 12:08:43;;;;;;;11.70;8.50;;;8.00;99.90;;;;;;5116577;28;20837;-40
2022/12/02 12:11:18;;;;;;;11.60;8.83;;;7.90;1.00;;;;;;5113786;28;20429;-41
2022/12/02 12:14:02;;;;;;;10.90;8.83;;;7.70;1.00;;;;;;5116371;28;20497;-42
2022/12/02 12:16:32;;;;;;;11.07;8.63;;;7.60;29.50;;;;;;5101506;28;20449;-39
2022/12/02 12:19:11;;;;;;;10.80;8.90;;;7.50;99.90;;;;;;5114136;28;20422;-40
2022/12/02 12:21:46;;;;;;;11.43;9.23;;;7.40;99.90;;;;;;5097695;28;20453;-40
2022/12/02 12:24:22;;;;;;;10.93;8.40;;;7.30;99.90;;;;;;5114141;28;20471;-41
2022/12/02 12:26:53;;;;;;;11.10;8.10;;;7.20;99.90;;;;;;5115889;28;20417;-41
2022/12/02 12:29:22;;;;;;;12.03;7.90;;;7.10;99.90;;;;;;5115628;28;20430;-41
2022/12/02 12:31:47;;;;;;;12.30;8.80;;;7.00;1.00;;;;;;5114518;28;20885;-42
2022/12/02 12:34:15;;;;;;;12.40;9.50;;;7.00;1.00;;;;;;5112389;28;20441;-41
2022/12/02 12:36:41;;;;;;;12.10;8.87;;;7.00;1.00;;;;;;5114684;28;20358;-43
2022/12/02 12:39:08;;;;;;;12.70;9.90;;;6.90;1.00;;;;;;5111884;28;20418;-42
2022/12/02 12:41:34;;;;;;;14.23;10.10;;;6.80;1.00;;;;;;5112258;28;20456;-41
2022/12/02 12:44:00;;;;;;;15.20;10.40;;;6.80;1.00;;;;;;5113216;28;20461;-41
2022/12/02 12:46:26;;;;;;;11.73;8.80;;;6.80;1.00;;;;;;5113521;28;21031;-43
2022/12/02 12:48:51;;;;;;;11.93;9.33;;;6.70;1.00;;;;;;5111905;28;20260;-40
2022/12/02 12:51:17;;;;;;;14.07;9.37;;;6.70;1.00;;;;;;5110368;28;20176;-52
2022/12/02 12:53:43;;;;;;;14.50;9.57;;;6.70;1.00;;;;;;5113452;28;20174;-42
2022/12/02 12:56:08;;;;;;;8.53;7.43;;;6.70;5.90;;;;;;5114833;28;20245;-42
2022/12/02 12:58:34;;;;;;;9.50;6.73;;;6.60;1.00;;;;;;5113748;28;20469;-42
2022/12/02 13:01:00;;;;;;;8.93;7.33;;;6.60;1.00;;;;;;5111038;28;20290;-44
2022/12/02 13:03:26;;;;;;;8.40;7.30;;;6.60;1.00;;;;;;5106172;28;20298;-46
2022/12/02 13:05:51;;;;;;;7.80;6.30;;;6.60;1.00;;;;;;5107843;28;20180;-43
2022/12/02 13:08:17;;;;;;;8.23;6.40;;;6.60;1.00;;;;;;5112545;28;20179;-41